sensor_id;sensor_type;location;lat;lon;timestamp;P1;durP1;ratioP1;P2;durP2;ratioP2
44328;SDS011;30039;51.462;6.892;2023-08-24T00:01:04;8.05;;;4.53;;
44328;SDS011;30039;51.462;6.892;2023-08-24T00:03:49;7.88;;;4.22;;
44328;SDS011;30039;51.462;6.892;2023-08-24T00:06:35;8.48;;;4.80;;
44328;SDS011;30039;51.462;6.892;2023-08-24T00:09:20;9.05;;;5.03;;
44328;SDS011;30039;51.462;6.892;2023-08-24T00:12:06;7.70;;;4.78;;
44328;SDS011;30039;51.462;6.892;2023-08-24T00:14:52;10.35;;;5.32;;
44328;SDS011;30039;51.462;6.892;2023-08-24T00:17:37;11.00;;;5.57;;
44328;SDS011;30039;51.462;6.892;2023-08-24T00:20:23;9.90;;;5.55;;
44328;SDS011;30039;51.462;6.892;2023-08-24T00:23:08;10.30;;;5.35;;
44328;SDS011;30039;51.462;6.892;2023-08-24T00:25:54;9.18;;;5.20;;
44328;SDS011;30039;51.462;6.892;2023-08-24T00:28:40;13.43;;;4.88;;
44328;SDS011;30039;51.462;6.892;2023-08-24T00:31:25;6.75;;;4.82;;
44328;SDS011;30039;51.462;6.892;2023-08-24T00:34:11;7.63;;;4.68;;
44328;SDS011;30039;51.462;6.892;2023-08-24T00:36:56;7.68;;;4.93;;
44328;SDS011;30039;51.462;6.892;2023-08-24T00:39:42;9.57;;;5.22;;
44328;SDS011;30039;51.462;6.892;2023-08-24T00:42:27;8.00;;;5.32;;
44328;SDS011;30039;51.462;6.892;2023-08-24T00:45:13;8.00;;;5.30;;
44328;SDS011;30039;51.462;6.892;2023-08-24T00:47:59;9.80;;;4.70;;
44328;SDS011;30039;51.462;6.892;2023-08-24T00:50:44;8.98;;;5.00;;
44328;SDS011;30039;51.462;6.892;2023-08-24T00:53:30;7.93;;;5.20;;
44328;SDS011;30039;51.462;6.892;2023-08-24T00:56:17;6.65;;;5.22;;
44328;SDS011;30039;51.462;6.892;2023-08-24T00:59:05;7.68;;;5.00;;
44328;SDS011;30039;51.462;6.892;2023-08-24T01:01:50;8.02;;;5.10;;
44328;SDS011;30039;51.462;6.892;2023-08-24T01:04:36;9.30;;;5.03;;
44328;SDS011;30039;51.462;6.892;2023-08-24T01:07:22;7.18;;;4.60;;
44328;SDS011;30039;51.462;6.892;2023-08-24T01:10:08;7.25;;;5.30;;
44328;SDS011;30039;51.462;6.892;2023-08-24T01:13:10;8.82;;;5.03;;
44328;SDS011;30039;51.462;6.892;2023-08-24T01:16:00;8.17;;;4.30;;
44328;SDS011;30039;51.462;6.892;2023-08-24T01:18:48;9.50;;;5.03;;
44328;SDS011;30039;51.462;6.892;2023-08-24T01:21:34;9.93;;;5.40;;
44328;SDS011;30039;51.462;6.892;2023-08-24T01:24:26;10.25;;;5.10;;
44328;SDS011;30039;51.462;6.892;2023-08-24T01:27:15;11.98;;;5.10;;
44328;SDS011;30039;51.462;6.892;2023-08-24T01:30:03;8.43;;;5.07;;
44328;SDS011;30039;51.462;6.892;2023-08-24T01:32:49;7.30;;;4.88;;
44328;SDS011;30039;51.462;6.892;2023-08-24T01:35:35;7.07;;;4.50;;
44328;SDS011;30039;51.462;6.892;2023-08-24T01:38:20;6.75;;;4.80;;
44328;SDS011;30039;51.462;6.892;2023-08-24T01:41:13;7.55;;;4.63;;
44328;SDS011;30039;51.462;6.892;2023-08-24T01:44:00;7.18;;;4.97;;
44328;SDS011;30039;51.462;6.892;2023-08-24T01:46:46;8.75;;;4.88;;
44328;SDS011;30039;51.462;6.892;2023-08-24T01:49:33;8.63;;;5.20;;
44328;SDS011;30039;51.462;6.892;2023-08-24T01:52:19;7.55;;;4.85;;
44328;SDS011;30039;51.462;6.892;2023-08-24T01:55:05;9.10;;;4.90;;
44328;SDS011;30039;51.462;6.892;2023-08-24T01:57:50;10.43;;;5.03;;
44328;SDS011;30039;51.462;6.892;2023-08-24T02:00:36;8.27;;;5.40;;
44328;SDS011;30039;51.462;6.892;2023-08-24T02:03:21;6.50;;;4.45;;
44328;SDS011;30039;51.462;6.892;2023-08-24T02:06:07;7.25;;;4.82;;
44328;SDS011;30039;51.462;6.892;2023-08-24T02:08:53;7.25;;;5.15;;
44328;SDS011;30039;51.462;6.892;2023-08-24T02:11:38;9.73;;;5.13;;
44328;SDS011;30039;51.462;6.892;2023-08-24T02:14:24;10.50;;;4.93;;
44328;SDS011;30039;51.462;6.892;2023-08-24T02:17:09;6.45;;;4.72;;
44328;SDS011;30039;51.462;6.892;2023-08-24T02:19:55;8.82;;;4.82;;
44328;SDS011;30039;51.462;6.892;2023-08-24T02:22:41;7.25;;;4.60;;
44328;SDS011;30039;51.462;6.892;2023-08-24T02:25:26;9.20;;;4.90;;
44328;SDS011;30039;51.462;6.892;2023-08-24T02:28:12;7.03;;;4.90;;
44328;SDS011;30039;51.462;6.892;2023-08-24T02:31:01;6.43;;;4.38;;
44328;SDS011;30039;51.462;6.892;2023-08-24T02:33:47;5.80;;;4.28;;
44328;SDS011;30039;51.462;6.892;2023-08-24T02:36:34;8.40;;;5.00;;
44328;SDS011;30039;51.462;6.892;2023-08-24T02:39:21;6.50;;;4.50;;
44328;SDS011;30039;51.462;6.892;2023-08-24T02:42:07;9.68;;;4.88;;
44328;SDS011;30039;51.462;6.892;2023-08-24T02:44:52;6.40;;;5.28;;
44328;SDS011;30039;51.462;6.892;2023-08-24T02:47:38;7.93;;;4.88;;
44328;SDS011;30039;51.462;6.892;2023-08-24T02:50:23;6.80;;;4.45;;
44328;SDS011;30039;51.462;6.892;2023-08-24T02:53:09;7.13;;;4.50;;
44328;SDS011;30039;51.462;6.892;2023-08-24T02:55:55;7.25;;;4.75;;
44328;SDS011;30039;51.462;6.892;2023-08-24T02:58:41;7.03;;;4.72;;
44328;SDS011;30039;51.462;6.892;2023-08-24T03:01:26;5.30;;;4.50;;
44328;SDS011;30039;51.462;6.892;2023-08-24T03:04:12;6.72;;;4.38;;
44328;SDS011;30039;51.462;6.892;2023-08-24T03:06:57;7.32;;;4.85;;
44328;SDS011;30039;51.462;6.892;2023-08-24T03:09:43;7.72;;;4.85;;
44328;SDS011;30039;51.462;6.892;2023-08-24T03:12:28;6.63;;;4.57;;
44328;SDS011;30039;51.462;6.892;2023-08-24T03:15:14;8.43;;;4.88;;
44328;SDS011;30039;51.462;6.892;2023-08-24T03:18:00;7.75;;;5.13;;
44328;SDS011;30039;51.462;6.892;2023-08-24T03:20:45;8.65;;;4.50;;
44328;SDS011;30039;51.462;6.892;2023-08-24T03:23:31;7.80;;;4.70;;
44328;SDS011;30039;51.462;6.892;2023-08-24T03:26:17;8.43;;;4.68;;
44328;SDS011;30039;51.462;6.892;2023-08-24T03:29:05;6.45;;;4.63;;
44328;SDS011;30039;51.462;6.892;2023-08-24T03:31:51;7.15;;;4.88;;
44328;SDS011;30039;51.462;6.892;2023-08-24T03:34:36;10.38;;;5.20;;
44328;SDS011;30039;51.462;6.892;2023-08-24T03:37:22;8.80;;;5.00;;
44328;SDS011;30039;51.462;6.892;2023-08-24T03:40:07;7.20;;;4.88;;
44328;SDS011;30039;51.462;6.892;2023-08-24T03:42:53;6.75;;;4.70;;
44328;SDS011;30039;51.462;6.892;2023-08-24T03:45:39;9.90;;;4.90;;
44328;SDS011;30039;51.462;6.892;2023-08-24T03:48:25;7.15;;;4.75;;
44328;SDS011;30039;51.462;6.892;2023-08-24T03:51:10;8.32;;;4.90;;
44328;SDS011;30039;51.462;6.892;2023-08-24T03:53:56;7.03;;;4.38;;
44328;SDS011;30039;51.462;6.892;2023-08-24T03:56:41;8.15;;;4.40;;
44328;SDS011;30039;51.462;6.892;2023-08-24T03:59:27;7.40;;;4.68;;
44328;SDS011;30039;51.462;6.892;2023-08-24T04:02:13;7.65;;;4.55;;
44328;SDS011;30039;51.462;6.892;2023-08-24T04:04:58;6.25;;;4.30;;
44328;SDS011;30039;51.462;6.892;2023-08-24T04:07:44;7.78;;;4.18;;
44328;SDS011;30039;51.462;6.892;2023-08-24T04:10:29;6.85;;;4.15;;
44328;SDS011;30039;51.462;6.892;2023-08-24T04:13:15;7.13;;;4.70;;
44328;SDS011;30039;51.462;6.892;2023-08-24T04:16:01;7.00;;;4.38;;
44328;SDS011;30039;51.462;6.892;2023-08-24T04:18:46;8.75;;;4.45;;
44328;SDS011;30039;51.462;6.892;2023-08-24T04:21:32;7.07;;;4.55;;
44328;SDS011;30039;51.462;6.892;2023-08-24T04:24:17;9.65;;;4.55;;
44328;SDS011;30039;51.462;6.892;2023-08-24T04:27:03;8.13;;;4.95;;
44328;SDS011;30039;51.462;6.892;2023-08-24T04:29:48;7.50;;;4.68;;
44328;SDS011;30039;51.462;6.892;2023-08-24T04:32:34;7.53;;;4.57;;
44328;SDS011;30039;51.462;6.892;2023-08-24T04:35:20;6.18;;;4.70;;
44328;SDS011;30039;51.462;6.892;2023-08-24T04:38:05;6.90;;;4.93;;
44328;SDS011;30039;51.462;6.892;2023-08-24T04:40:52;6.85;;;4.70;;
44328;SDS011;30039;51.462;6.892;2023-08-24T04:43:37;7.90;;;4.80;;
44328;SDS011;30039;51.462;6.892;2023-08-24T04:46:23;7.78;;;5.00;;
44328;SDS011;30039;51.462;6.892;2023-08-24T04:49:09;10.35;;;5.38;;
44328;SDS011;30039;51.462;6.892;2023-08-24T04:51:54;7.40;;;5.40;;
44328;SDS011;30039;51.462;6.892;2023-08-24T04:54:40;9.60;;;4.95;;
44328;SDS011;30039;51.462;6.892;2023-08-24T04:57:25;6.43;;;4.55;;
44328;SDS011;30039;51.462;6.892;2023-08-24T05:00:11;5.97;;;4.47;;
44328;SDS011;30039;51.462;6.892;2023-08-24T05:03:01;7.68;;;4.57;;
44328;SDS011;30039;51.462;6.892;2023-08-24T05:05:47;8.93;;;4.75;;
44328;SDS011;30039;51.462;6.892;2023-08-24T05:08:33;7.43;;;4.50;;
44328;SDS011;30039;51.462;6.892;2023-08-24T05:11:19;8.05;;;4.55;;
44328;SDS011;30039;51.462;6.892;2023-08-24T05:14:05;9.23;;;4.43;;
44328;SDS011;30039;51.462;6.892;2023-08-24T05:16:50;7.07;;;4.32;;
44328;SDS011;30039;51.462;6.892;2023-08-24T05:19:36;6.88;;;4.05;;
44328;SDS011;30039;51.462;6.892;2023-08-24T05:22:21;7.10;;;4.30;;
44328;SDS011;30039;51.462;6.892;2023-08-24T05:25:07;9.38;;;4.35;;
44328;SDS011;30039;51.462;6.892;2023-08-24T05:27:53;7.70;;;3.90;;
44328;SDS011;30039;51.462;6.892;2023-08-24T05:30:38;5.68;;;3.90;;
44328;SDS011;30039;51.462;6.892;2023-08-24T05:33:24;6.75;;;4.18;;
44328;SDS011;30039;51.462;6.892;2023-08-24T05:36:10;8.75;;;4.45;;
44328;SDS011;30039;51.462;6.892;2023-08-24T05:38:55;6.13;;;3.70;;
44328;SDS011;30039;51.462;6.892;2023-08-24T05:41:41;7.18;;;4.03;;
44328;SDS011;30039;51.462;6.892;2023-08-24T05:44:27;6.03;;;3.90;;
44328;SDS011;30039;51.462;6.892;2023-08-24T05:47:13;8.15;;;3.83;;
44328;SDS011;30039;51.462;6.892;2023-08-24T05:49:58;7.43;;;4.22;;
44328;SDS011;30039;51.462;6.892;2023-08-24T05:52:44;11.35;;;4.63;;
44328;SDS011;30039;51.462;6.892;2023-08-24T05:55:29;6.00;;;3.97;;
44328;SDS011;30039;51.462;6.892;2023-08-24T05:58:15;7.32;;;4.07;;
44328;SDS011;30039;51.462;6.892;2023-08-24T06:01:01;8.25;;;3.50;;
44328;SDS011;30039;51.462;6.892;2023-08-24T06:03:47;6.38;;;3.90;;
44328;SDS011;30039;51.462;6.892;2023-08-24T06:06:33;9.55;;;3.70;;
44328;SDS011;30039;51.462;6.892;2023-08-24T06:09:18;6.00;;;4.00;;
44328;SDS011;30039;51.462;6.892;2023-08-24T06:12:04;8.70;;;4.70;;
44328;SDS011;30039;51.462;6.892;2023-08-24T06:14:50;7.47;;;4.75;;
44328;SDS011;30039;51.462;6.892;2023-08-24T06:17:35;10.05;;;4.70;;
44328;SDS011;30039;51.462;6.892;2023-08-24T06:20:21;7.88;;;4.32;;
44328;SDS011;30039;51.462;6.892;2023-08-24T06:23:06;7.70;;;4.38;;
44328;SDS011;30039;51.462;6.892;2023-08-24T06:25:55;7.30;;;4.85;;
44328;SDS011;30039;51.462;6.892;2023-08-24T06:28:41;7.30;;;4.93;;
44328;SDS011;30039;51.462;6.892;2023-08-24T06:31:26;9.00;;;5.45;;
44328;SDS011;30039;51.462;6.892;2023-08-24T06:34:12;9.60;;;5.30;;
44328;SDS011;30039;51.462;6.892;2023-08-24T06:37:00;10.27;;;6.18;;
44328;SDS011;30039;51.462;6.892;2023-08-24T06:39:46;13.45;;;5.40;;
44328;SDS011;30039;51.462;6.892;2023-08-24T06:42:31;8.82;;;4.78;;
44328;SDS011;30039;51.462;6.892;2023-08-24T06:45:17;9.73;;;5.32;;
44328;SDS011;30039;51.462;6.892;2023-08-24T06:48:03;7.68;;;4.97;;
44328;SDS011;30039;51.462;6.892;2023-08-24T06:50:50;9.55;;;4.75;;
44328;SDS011;30039;51.462;6.892;2023-08-24T06:53:36;9.82;;;4.72;;
44328;SDS011;30039;51.462;6.892;2023-08-24T06:56:22;10.55;;;5.18;;
44328;SDS011;30039;51.462;6.892;2023-08-24T06:59:08;7.57;;;5.13;;
44328;SDS011;30039;51.462;6.892;2023-08-24T07:01:54;7.65;;;5.03;;
44328;SDS011;30039;51.462;6.892;2023-08-24T07:04:40;7.70;;;5.10;;
44328;SDS011;30039;51.462;6.892;2023-08-24T07:07:25;9.13;;;4.70;;
44328;SDS011;30039;51.462;6.892;2023-08-24T07:10:11;6.40;;;4.40;;
44328;SDS011;30039;51.462;6.892;2023-08-24T07:12:57;10.20;;;4.78;;
44328;SDS011;30039;51.462;6.892;2023-08-24T07:15:42;9.23;;;4.15;;
44328;SDS011;30039;51.462;6.892;2023-08-24T07:18:28;6.82;;;4.45;;
44328;SDS011;30039;51.462;6.892;2023-08-24T07:21:14;12.73;;;4.57;;
44328;SDS011;30039;51.462;6.892;2023-08-24T07:24:00;8.93;;;5.20;;
44328;SDS011;30039;51.462;6.892;2023-08-24T07:26:46;10.52;;;4.38;;
44328;SDS011;30039;51.462;6.892;2023-08-24T07:29:32;8.55;;;4.90;;
44328;SDS011;30039;51.462;6.892;2023-08-24T07:32:18;9.25;;;5.15;;
44328;SDS011;30039;51.462;6.892;2023-08-24T07:35:04;9.27;;;4.18;;
44328;SDS011;30039;51.462;6.892;2023-08-24T07:37:51;8.02;;;4.45;;
44328;SDS011;30039;51.462;6.892;2023-08-24T07:40:37;9.68;;;4.57;;
44328;SDS011;30039;51.462;6.892;2023-08-24T07:43:23;10.07;;;4.50;;
44328;SDS011;30039;51.462;6.892;2023-08-24T07:46:08;11.07;;;4.45;;
44328;SDS011;30039;51.462;6.892;2023-08-24T07:48:54;10.30;;;4.30;;
44328;SDS011;30039;51.462;6.892;2023-08-24T07:51:41;11.98;;;4.75;;
44328;SDS011;30039;51.462;6.892;2023-08-24T07:54:29;9.60;;;4.25;;
44328;SDS011;30039;51.462;6.892;2023-08-24T07:57:14;10.40;;;4.43;;
44328;SDS011;30039;51.462;6.892;2023-08-24T08:00:00;8.23;;;4.15;;
44328;SDS011;30039;51.462;6.892;2023-08-24T08:02:46;6.45;;;3.88;;
44328;SDS011;30039;51.462;6.892;2023-08-24T08:05:34;8.50;;;4.10;;
44328;SDS011;30039;51.462;6.892;2023-08-24T08:08:20;4.68;;;3.47;;
44328;SDS011;30039;51.462;6.892;2023-08-24T08:11:05;5.00;;;2.67;;
44328;SDS011;30039;51.462;6.892;2023-08-24T08:13:51;4.90;;;3.70;;
44328;SDS011;30039;51.462;6.892;2023-08-24T08:16:36;7.97;;;3.10;;
44328;SDS011;30039;51.462;6.892;2023-08-24T08:19:22;6.50;;;3.00;;
44328;SDS011;30039;51.462;6.892;2023-08-24T08:22:11;4.25;;;2.70;;
44328;SDS011;30039;51.462;6.892;2023-08-24T08:24:57;4.70;;;2.70;;
44328;SDS011;30039;51.462;6.892;2023-08-24T08:27:43;4.85;;;2.85;;
44328;SDS011;30039;51.462;6.892;2023-08-24T08:30:29;5.43;;;2.75;;
44328;SDS011;30039;51.462;6.892;2023-08-24T08:33:14;6.55;;;2.75;;
44328;SDS011;30039;51.462;6.892;2023-08-24T08:36:00;4.45;;;2.90;;
44328;SDS011;30039;51.462;6.892;2023-08-24T08:38:45;4.93;;;2.60;;
44328;SDS011;30039;51.462;6.892;2023-08-24T08:41:33;8.32;;;3.00;;
44328;SDS011;30039;51.462;6.892;2023-08-24T08:44:19;8.23;;;2.88;;
44328;SDS011;30039;51.462;6.892;2023-08-24T08:47:06;3.70;;;2.70;;
44328;SDS011;30039;51.462;6.892;2023-08-24T08:49:53;3.90;;;2.70;;
44328;SDS011;30039;51.462;6.892;2023-08-24T08:52:39;6.03;;;2.85;;
44328;SDS011;30039;51.462;6.892;2023-08-24T08:55:25;5.22;;;2.55;;
44328;SDS011;30039;51.462;6.892;2023-08-24T08:58:11;5.32;;;2.30;;
44328;SDS011;30039;51.462;6.892;2023-08-24T09:00:57;4.55;;;2.40;;
44328;SDS011;30039;51.462;6.892;2023-08-24T09:03:45;4.57;;;2.38;;
44328;SDS011;30039;51.462;6.892;2023-08-24T09:06:31;4.22;;;2.10;;
44328;SDS011;30039;51.462;6.892;2023-08-24T09:09:16;2.95;;;1.88;;
44328;SDS011;30039;51.462;6.892;2023-08-24T09:12:02;2.10;;;1.73;;
44328;SDS011;30039;51.462;6.892;2023-08-24T09:14:49;3.17;;;1.88;;
44328;SDS011;30039;51.462;6.892;2023-08-24T09:17:34;3.00;;;1.60;;
44328;SDS011;30039;51.462;6.892;2023-08-24T09:20:20;3.25;;;2.05;;
44328;SDS011;30039;51.462;6.892;2023-08-24T09:23:06;5.13;;;1.70;;
44328;SDS011;30039;51.462;6.892;2023-08-24T09:26:02;3.20;;;1.80;;
44328;SDS011;30039;51.462;6.892;2023-08-24T09:28:48;3.38;;;1.90;;
44328;SDS011;30039;51.462;6.892;2023-08-24T09:31:36;4.15;;;1.90;;
44328;SDS011;30039;51.462;6.892;2023-08-24T09:34:24;2.67;;;1.80;;
44328;SDS011;30039;51.462;6.892;2023-08-24T09:37:14;2.78;;;1.70;;
44328;SDS011;30039;51.462;6.892;2023-08-24T09:40:02;4.40;;;2.10;;
44328;SDS011;30039;51.462;6.892;2023-08-24T09:42:52;3.13;;;1.77;;
44328;SDS011;30039;51.462;6.892;2023-08-24T09:45:38;2.38;;;1.75;;
44328;SDS011;30039;51.462;6.892;2023-08-24T09:48:23;2.90;;;1.90;;
44328;SDS011;30039;51.462;6.892;2023-08-24T09:51:09;3.72;;;1.77;;
44328;SDS011;30039;51.462;6.892;2023-08-24T09:53:56;4.15;;;2.00;;
44328;SDS011;30039;51.462;6.892;2023-08-24T09:56:42;4.82;;;2.17;;
44328;SDS011;30039;51.462;6.892;2023-08-24T09:59:28;5.20;;;2.20;;
44328;SDS011;30039;51.462;6.892;2023-08-24T10:02:17;4.05;;;2.45;;
44328;SDS011;30039;51.462;6.892;2023-08-24T10:05:05;3.95;;;2.00;;
44328;SDS011;30039;51.462;6.892;2023-08-24T10:07:53;3.85;;;1.85;;
44328;SDS011;30039;51.462;6.892;2023-08-24T10:10:39;4.45;;;2.10;;
44328;SDS011;30039;51.462;6.892;2023-08-24T10:13:31;3.38;;;2.08;;
44328;SDS011;30039;51.462;6.892;2023-08-24T10:16:17;3.75;;;1.85;;
44328;SDS011;30039;51.462;6.892;2023-08-24T10:19:04;3.30;;;2.05;;
44328;SDS011;30039;51.462;6.892;2023-08-24T10:21:50;5.35;;;2.40;;
44328;SDS011;30039;51.462;6.892;2023-08-24T10:24:37;4.40;;;2.20;;
44328;SDS011;30039;51.462;6.892;2023-08-24T10:27:23;4.43;;;1.90;;
44328;SDS011;30039;51.462;6.892;2023-08-24T10:30:10;6.63;;;2.10;;
44328;SDS011;30039;51.462;6.892;2023-08-24T10:32:57;4.95;;;2.00;;
44328;SDS011;30039;51.462;6.892;2023-08-24T10:35:43;2.35;;;1.83;;
44328;SDS011;30039;51.462;6.892;2023-08-24T10:38:29;3.38;;;1.80;;
44328;SDS011;30039;51.462;6.892;2023-08-24T10:41:15;3.40;;;2.22;;
44328;SDS011;30039;51.462;6.892;2023-08-24T10:44:04;4.03;;;2.17;;
44328;SDS011;30039;51.462;6.892;2023-08-24T10:52:44;3.50;;;1.98;;
44328;SDS011;30039;51.462;6.892;2023-08-24T10:55:29;5.55;;;2.50;;
44328;SDS011;30039;51.462;6.892;2023-08-24T10:58:15;2.85;;;2.00;;
44328;SDS011;30039;51.462;6.892;2023-08-24T11:01:02;2.95;;;2.10;;
44328;SDS011;30039;51.462;6.892;2023-08-24T11:03:48;3.25;;;1.98;;
44328;SDS011;30039;51.462;6.892;2023-08-24T11:06:34;3.85;;;2.33;;
44328;SDS011;30039;51.462;6.892;2023-08-24T11:09:20;3.55;;;1.77;;
44328;SDS011;30039;51.462;6.892;2023-08-24T11:12:05;3.78;;;1.92;;
44328;SDS011;30039;51.462;6.892;2023-08-24T11:14:51;3.33;;;1.80;;
44328;SDS011;30039;51.462;6.892;2023-08-24T11:17:39;5.65;;;2.40;;
44328;SDS011;30039;51.462;6.892;2023-08-24T11:20:25;3.03;;;1.60;;
44328;SDS011;30039;51.462;6.892;2023-08-24T11:23:10;3.25;;;1.77;;
44328;SDS011;30039;51.462;6.892;2023-08-24T11:25:57;3.63;;;1.63;;
44328;SDS011;30039;51.462;6.892;2023-08-24T11:28:44;4.05;;;1.98;;
44328;SDS011;30039;51.462;6.892;2023-08-24T11:31:30;3.72;;;2.08;;
44328;SDS011;30039;51.462;6.892;2023-08-24T11:34:15;4.88;;;2.33;;
44328;SDS011;30039;51.462;6.892;2023-08-24T11:37:01;4.38;;;1.92;;
44328;SDS011;30039;51.462;6.892;2023-08-24T11:39:47;3.47;;;2.40;;
44328;SDS011;30039;51.462;6.892;2023-08-24T11:42:35;3.45;;;2.08;;
44328;SDS011;30039;51.462;6.892;2023-08-24T11:45:21;5.65;;;2.30;;
44328;SDS011;30039;51.462;6.892;2023-08-24T11:48:07;9.20;;;2.50;;
44328;SDS011;30039;51.462;6.892;2023-08-24T11:50:53;2.92;;;1.83;;
44328;SDS011;30039;51.462;6.892;2023-08-24T11:53:42;4.28;;;2.20;;
44328;SDS011;30039;51.462;6.892;2023-08-24T11:56:28;4.25;;;2.22;;
44328;SDS011;30039;51.462;6.892;2023-08-24T11:59:13;3.05;;;1.90;;
44328;SDS011;30039;51.462;6.892;2023-08-24T12:01:59;4.15;;;2.28;;
44328;SDS011;30039;51.462;6.892;2023-08-24T12:04:45;5.10;;;2.30;;
44328;SDS011;30039;51.462;6.892;2023-08-24T12:07:33;3.97;;;2.10;;
44328;SDS011;30039;51.462;6.892;2023-08-24T12:10:19;3.13;;;1.95;;
44328;SDS011;30039;51.462;6.892;2023-08-24T12:13:05;3.75;;;2.20;;
44328;SDS011;30039;51.462;6.892;2023-08-24T12:15:52;4.53;;;2.25;;
44328;SDS011;30039;51.462;6.892;2023-08-24T12:21:33;6.68;;;2.60;;
44328;SDS011;30039;51.462;6.892;2023-08-24T12:24:19;3.45;;;2.30;;
44328;SDS011;30039;51.462;6.892;2023-08-24T12:27:04;3.50;;;2.03;;
44328;SDS011;30039;51.462;6.892;2023-08-24T12:29:51;3.65;;;2.25;;
44328;SDS011;30039;51.462;6.892;2023-08-24T12:32:43;4.65;;;2.50;;
44328;SDS011;30039;51.462;6.892;2023-08-24T12:35:29;3.33;;;2.30;;
44328;SDS011;30039;51.462;6.892;2023-08-24T12:38:15;7.55;;;2.40;;
44328;SDS011;30039;51.462;6.892;2023-08-24T12:41:01;4.00;;;2.35;;
44328;SDS011;30039;51.462;6.892;2023-08-24T12:43:46;4.28;;;2.40;;
44328;SDS011;30039;51.462;6.892;2023-08-24T12:46:32;4.10;;;2.50;;
44328;SDS011;30039;51.462;6.892;2023-08-24T12:49:18;6.55;;;2.67;;
44328;SDS011;30039;51.462;6.892;2023-08-24T12:52:03;4.13;;;2.42;;
44328;SDS011;30039;51.462;6.892;2023-08-24T12:54:49;3.97;;;2.40;;
44328;SDS011;30039;51.462;6.892;2023-08-24T12:57:35;4.57;;;2.55;;
44328;SDS011;30039;51.462;6.892;2023-08-24T13:00:20;7.18;;;3.05;;
44328;SDS011;30039;51.462;6.892;2023-08-24T13:03:07;10.15;;;2.92;;
44328;SDS011;30039;51.462;6.892;2023-08-24T13:05:53;4.95;;;2.72;;
44328;SDS011;30039;51.462;6.892;2023-08-24T13:08:38;6.93;;;2.60;;
44328;SDS011;30039;51.462;6.892;2023-08-24T13:11:24;6.28;;;2.55;;
44328;SDS011;30039;51.462;6.892;2023-08-24T13:14:10;7.22;;;2.40;;
44328;SDS011;30039;51.462;6.892;2023-08-24T13:16:56;7.40;;;3.10;;
44328;SDS011;30039;51.462;6.892;2023-08-24T13:19:41;4.60;;;2.70;;
44328;SDS011;30039;51.462;6.892;2023-08-24T13:22:27;7.72;;;2.50;;
44328;SDS011;30039;51.462;6.892;2023-08-24T13:25:14;5.45;;;2.50;;
44328;SDS011;30039;51.462;6.892;2023-08-24T13:27:59;6.55;;;2.60;;
44328;SDS011;30039;51.462;6.892;2023-08-24T13:30:45;8.18;;;2.85;;
44328;SDS011;30039;51.462;6.892;2023-08-24T13:33:33;8.63;;;2.67;;
44328;SDS011;30039;51.462;6.892;2023-08-24T13:36:25;4.43;;;2.20;;
44328;SDS011;30039;51.462;6.892;2023-08-24T13:39:10;5.45;;;2.22;;
44328;SDS011;30039;51.462;6.892;2023-08-24T13:41:56;3.78;;;2.10;;
44328;SDS011;30039;51.462;6.892;2023-08-24T13:44:42;5.25;;;2.13;;
44328;SDS011;30039;51.462;6.892;2023-08-24T13:47:27;5.35;;;2.20;;
44328;SDS011;30039;51.462;6.892;2023-08-24T13:50:16;5.10;;;2.95;;
44328;SDS011;30039;51.462;6.892;2023-08-24T13:53:02;5.78;;;2.70;;
44328;SDS011;30039;51.462;6.892;2023-08-24T13:55:48;6.95;;;2.65;;
44328;SDS011;30039;51.462;6.892;2023-08-24T13:58:34;4.43;;;2.25;;
44328;SDS011;30039;51.462;6.892;2023-08-24T14:01:19;6.88;;;2.40;;
44328;SDS011;30039;51.462;6.892;2023-08-24T14:04:05;6.28;;;2.78;;
44328;SDS011;30039;51.462;6.892;2023-08-24T14:06:50;6.43;;;2.60;;
44328;SDS011;30039;51.462;6.892;2023-08-24T14:09:36;5.15;;;2.38;;
44328;SDS011;30039;51.462;6.892;2023-08-24T14:12:22;5.18;;;2.30;;
44328;SDS011;30039;51.462;6.892;2023-08-24T14:15:07;5.78;;;2.80;;
44328;SDS011;30039;51.462;6.892;2023-08-24T14:17:53;5.15;;;2.50;;
44328;SDS011;30039;51.462;6.892;2023-08-24T14:20:39;3.85;;;2.60;;
44328;SDS011;30039;51.462;6.892;2023-08-24T14:23:25;8.13;;;2.85;;
44328;SDS011;30039;51.462;6.892;2023-08-24T14:26:10;4.65;;;2.80;;
44328;SDS011;30039;51.462;6.892;2023-08-24T14:28:56;4.05;;;2.38;;
44328;SDS011;30039;51.462;6.892;2023-08-24T14:31:43;5.30;;;2.80;;
44328;SDS011;30039;51.462;6.892;2023-08-24T14:34:28;6.97;;;3.00;;
44328;SDS011;30039;51.462;6.892;2023-08-24T14:37:14;6.47;;;3.30;;
44328;SDS011;30039;51.462;6.892;2023-08-24T14:39:59;6.72;;;3.10;;
44328;SDS011;30039;51.462;6.892;2023-08-24T14:42:45;8.57;;;2.90;;
44328;SDS011;30039;51.462;6.892;2023-08-24T14:45:31;5.18;;;3.15;;
44328;SDS011;30039;51.462;6.892;2023-08-24T14:48:16;9.80;;;3.67;;
44328;SDS011;30039;51.462;6.892;2023-08-24T14:51:02;4.28;;;3.00;;
44328;SDS011;30039;51.462;6.892;2023-08-24T14:53:48;6.32;;;2.67;;
44328;SDS011;30039;51.462;6.892;2023-08-24T14:56:36;7.47;;;3.13;;
44328;SDS011;30039;51.462;6.892;2023-08-24T14:59:22;5.65;;;2.67;;
44328;SDS011;30039;51.462;6.892;2023-08-24T15:02:07;6.75;;;2.70;;
44328;SDS011;30039;51.462;6.892;2023-08-24T15:04:53;7.38;;;3.05;;
44328;SDS011;30039;51.462;6.892;2023-08-24T15:07:38;7.88;;;3.10;;
44328;SDS011;30039;51.462;6.892;2023-08-24T15:10:24;4.53;;;3.00;;
44328;SDS011;30039;51.462;6.892;2023-08-24T15:13:09;5.70;;;3.13;;
44328;SDS011;30039;51.462;6.892;2023-08-24T15:15:58;7.85;;;3.15;;
44328;SDS011;30039;51.462;6.892;2023-08-24T15:18:44;5.88;;;2.90;;
44328;SDS011;30039;51.462;6.892;2023-08-24T15:21:30;7.65;;;3.20;;
44328;SDS011;30039;51.462;6.892;2023-08-24T15:24:15;6.10;;;3.10;;
44328;SDS011;30039;51.462;6.892;2023-08-24T15:27:01;5.65;;;2.60;;
44328;SDS011;30039;51.462;6.892;2023-08-24T15:29:47;4.60;;;3.00;;
44328;SDS011;30039;51.462;6.892;2023-08-24T15:32:32;7.43;;;2.83;;
44328;SDS011;30039;51.462;6.892;2023-08-24T15:35:18;5.43;;;2.47;;
44328;SDS011;30039;51.462;6.892;2023-08-24T15:38:04;8.82;;;3.08;;
44328;SDS011;30039;51.462;6.892;2023-08-24T15:40:53;5.43;;;2.33;;
44328;SDS011;30039;51.462;6.892;2023-08-24T15:43:41;9.25;;;2.50;;
44328;SDS011;30039;51.462;6.892;2023-08-24T15:46:27;4.18;;;1.80;;
44328;SDS011;30039;51.462;6.892;2023-08-24T15:49:12;7.10;;;2.10;;
44328;SDS011;30039;51.462;6.892;2023-08-24T15:51:58;6.75;;;1.92;;
44328;SDS011;30039;51.462;6.892;2023-08-24T15:54:43;8.70;;;2.22;;
44328;SDS011;30039;51.462;6.892;2023-08-24T15:57:33;5.93;;;2.50;;
44328;SDS011;30039;51.462;6.892;2023-08-24T16:00:18;4.43;;;1.80;;
44328;SDS011;30039;51.462;6.892;2023-08-24T16:03:04;6.03;;;2.13;;
44328;SDS011;30039;51.462;6.892;2023-08-24T16:05:50;4.82;;;1.98;;
44328;SDS011;30039;51.462;6.892;2023-08-24T16:08:35;6.43;;;2.17;;
44328;SDS011;30039;51.462;6.892;2023-08-24T16:11:23;6.55;;;1.70;;
44328;SDS011;30039;51.462;6.892;2023-08-24T16:14:08;4.18;;;1.80;;
44328;SDS011;30039;51.462;6.892;2023-08-24T16:16:56;5.22;;;2.00;;
44328;SDS011;30039;51.462;6.892;2023-08-24T16:19:45;3.88;;;1.58;;
44328;SDS011;30039;51.462;6.892;2023-08-24T16:22:31;4.72;;;2.00;;
44328;SDS011;30039;51.462;6.892;2023-08-24T16:25:21;8.57;;;3.25;;
44328;SDS011;30039;51.462;6.892;2023-08-24T16:28:07;6.18;;;2.25;;
44328;SDS011;30039;51.462;6.892;2023-08-24T16:30:53;8.85;;;2.55;;
44328;SDS011;30039;51.462;6.892;2023-08-24T16:33:38;5.93;;;2.30;;
44328;SDS011;30039;51.462;6.892;2023-08-24T16:36:25;3.45;;;2.28;;
44328;SDS011;30039;51.462;6.892;2023-08-24T16:39:11;5.82;;;2.35;;
44328;SDS011;30039;51.462;6.892;2023-08-24T16:41:57;5.20;;;2.00;;
44328;SDS011;30039;51.462;6.892;2023-08-24T16:44:45;6.45;;;2.35;;
44328;SDS011;30039;51.462;6.892;2023-08-24T16:47:31;4.90;;;2.10;;
44328;SDS011;30039;51.462;6.892;2023-08-24T16:50:17;3.47;;;1.90;;